Time,TemperatureF,DewpointF,PressureIn,WindDirection,WindDirectionDegrees,WindSpeedMPH,WindSpeedGustMPH,Humidity,HourlyPrecipIn,Conditions,Clouds,dailyrainin,SoftwareType,DateUTC
2013-02-06 00:02:00,9.0,5.0,-100.00,NW,305,3.0,6.0,86,-99.99,,,-99.99,,2013-02-06 05:02:00,
2013-02-06 00:12:00,9.0,5.0,-100.00,NW,305,3.0,6.0,86,-99.99,,,-99.99,,2013-02-06 05:12:00,
2013-02-06 00:22:00,9.0,6.0,-100.00,WNW,285,2.0,4.0,88,-99.99,,,-99.99,,2013-02-06 05:22:00,
2013-02-06 00:32:00,8.0,5.0,-100.00,NW,310,4.0,5.0,88,-99.99,,,-99.99,,2013-02-06 05:32:00,
2013-02-06 00:41:00,8.0,5.0,-100.00,NW,310,4.0,5.0,88,-99.99,,,-99.99,,2013-02-06 05:41:00,
2013-02-06 00:52:00,7.0,5.0,-100.00,WNW,290,3.0,5.0,88,-99.99,,,-99.99,,2013-02-06 05:52:00,
2013-02-06 01:01:00,6.0,3.0,-100.00,WNW,285,4.0,7.0,88,-99.99,,,-99.99,,2013-02-06 06:01:00,
2013-02-06 01:11:00,6.0,3.0,-100.00,WNW,285,4.0,7.0,88,-99.99,,,-99.99,,2013-02-06 06:11:00,
2013-02-06 01:21:00,7.0,4.0,-100.00,NW,305,6.0,8.0,89,-99.99,,,-99.99,,2013-02-06 06:21:00,
2013-02-06 01:32:00,7.0,4.0,-100.00,NW,310,4.0,7.0,88,-99.99,,,-99.99,,2013-02-06 06:32:00,
2013-02-06 01:42:00,7.0,4.0,-100.00,NW,310,4.0,7.0,88,-99.99,,,-99.99,,2013-02-06 06:42:00,
2013-02-06 01:51:00,8.0,5.0,-100.00,NW,305,4.0,7.0,88,-99.99,,,-99.99,,2013-02-06 06:51:00,
2013-02-06 02:01:00,7.0,5.0,-100.00,NW,325,4.0,6.0,88,-99.99,,,-99.99,,2013-02-06 07:01:00,
2013-02-06 02:11:00,7.0,5.0,-100.00,NW,325,4.0,6.0,88,-99.99,,,-99.99,,2013-02-06 07:11:00,
2013-02-06 02:22:00,8.0,5.0,-100.00,NW,315,4.0,6.0,88,-99.99,,,-99.99,,2013-02-06 07:22:00,
2013-02-06 02:32:00,7.0,4.0,-100.00,NNW,340,3.0,5.0,87,-99.99,,,-99.99,,2013-02-06 07:32:00,
2013-02-06 02:42:00,7.0,4.0,-100.00,NNW,340,3.0,5.0,87,-99.99,,,-99.99,,2013-02-06 07:42:00,
2013-02-06 02:51:00,8.0,5.0,-100.00,NW,310,4.0,7.0,89,-99.99,,,-99.99,,2013-02-06 07:51:00,
2013-02-06 03:01:00,7.0,5.0,-100.00,NNW,345,4.0,4.0,89,-99.99,,,-99.99,,2013-02-06 08:01:00,
2013-02-06 03:11:00,7.0,5.0,-100.00,NNW,345,4.0,4.0,89,-99.99,,,-99.99,,2013-02-06 08:11:00,
2013-02-06 03:21:00,7.0,5.0,-100.00,NNW,330,4.0,6.0,90,-99.99,,,-99.99,,2013-02-06 08:21:00,
2013-02-06 03:31:00,6.0,4.0,-100.00,NNW,330,2.0,4.0,90,-99.99,,,-99.99,,2013-02-06 08:31:00,
2013-02-06 03:42:00,6.0,4.0,-100.00,NNW,330,2.0,4.0,90,-99.99,,,-99.99,,2013-02-06 08:42:00,
2013-02-06 03:53:00,6.0,3.0,-100.00,North,350,1.0,4.0,91,-99.99,,,-99.99,,2013-02-06 08:53:00,
2013-02-06 04:01:00,5.0,3.0,-100.00,North,355,3.0,4.0,92,-99.99,,,-99.99,,2013-02-06 09:01:00,
2013-02-06 04:21:00,5.0,4.0,-100.00,North,5,4.0,5.0,93,-99.99,,,-99.99,,2013-02-06 09:21:00,
2013-02-06 04:32:00,5.0,4.0,-100.00,NNW,340,4.0,6.0,93,-99.99,,,-99.99,,2013-02-06 09:32:00,
2013-02-06 04:51:00,5.0,3.0,-100.00,NW,325,4.0,6.0,93,-99.99,,,-99.99,,2013-02-06 09:51:00,
2013-02-06 05:01:00,5.0,3.0,-100.00,North,5,4.0,6.0,94,-99.99,,,-99.99,,2013-02-06 10:01:00,
2013-02-06 05:21:00,4.0,3.0,-100.00,NNE,25,4.0,8.0,95,-99.99,,,-99.99,,2013-02-06 10:21:00,
2013-02-06 05:31:00,2.0,0.0,-100.00,NNW,330,3.0,4.0,92,-99.99,,,-99.99,,2013-02-06 10:31:00,
2013-02-06 05:51:00,2.0,1.0,-100.00,NW,325,4.0,6.0,94,-99.99,,,-99.99,,2013-02-06 10:51:00,
2013-02-06 06:01:00,3.0,2.0,-100.00,North,350,4.0,6.0,95,-99.99,,,-99.99,,2013-02-06 11:01:00,
2013-02-06 06:22:00,-2.0,-4.0,-100.00,NW,325,2.0,4.0,91,-99.99,,,-99.99,,2013-02-06 11:22:00,
2013-02-06 06:32:00,-2.0,-4.0,-100.00,NW,310,2.0,5.0,91,-99.99,,,-99.99,,2013-02-06 11:32:00,
2013-02-06 06:52:00,-3.0,-5.0,-100.00,NW,320,2.0,4.0,91,-99.99,,,-99.99,,2013-02-06 11:52:00,
2013-02-06 07:02:00,0.0,-2.0,-100.00,NNW,335,4.0,6.0,92,-99.99,,,-99.99,,2013-02-06 12:02:00,
2013-02-06 07:22:00,2.0,0.0,-100.00,North,5,4.0,6.0,94,-99.99,,,-99.99,,2013-02-06 12:22:00,
2013-02-06 07:32:00,3.0,1.0,-100.00,NW,325,4.0,5.0,94,-99.99,,,-99.99,,2013-02-06 12:32:00,
2013-02-06 07:42:00,3.0,1.0,-100.00,NW,325,4.0,5.0,94,-99.99,,,-99.99,,2013-02-06 12:42:00,
2013-02-06 07:52:00,4.0,2.0,-100.00,WNW,290,3.0,5.0,94,-99.99,,,-99.99,,2013-02-06 12:52:00,
2013-02-06 08:01:00,5.0,4.0,-100.00,NNW,340,2.0,5.0,95,-99.99,,,-99.99,,2013-02-06 13:01:00,
2013-02-06 09:32:00,7.0,5.0,-100.00,SE,140,1.0,2.0,93,-99.99,,,-99.99,,2013-02-06 14:32:00,
2013-02-06 09:42:00,7.0,5.0,-100.00,SE,140,1.0,2.0,93,-99.99,,,-99.99,,2013-02-06 14:42:00,
2013-02-06 09:52:00,7.0,5.0,-100.00,WNW,295,1.0,3.0,93,-99.99,,,-99.99,,2013-02-06 14:52:00,
2013-02-06 10:02:00,7.0,6.0,-100.00,ENE,60,1.0,3.0,93,-99.99,,,-99.99,,2013-02-06 15:02:00,
2013-02-06 10:21:00,8.0,7.0,-100.00,WSW,250,1.0,3.0,93,-99.99,,,-99.99,,2013-02-06 15:21:00,
2013-02-06 10:31:00,8.0,7.0,-100.00,NW,305,3.0,4.0,93,-99.99,,,-99.99,,2013-02-06 15:31:00,
2013-02-06 10:42:00,8.0,7.0,-100.00,NW,305,3.0,4.0,93,-99.99,,,-99.99,,2013-02-06 15:42:00,
2013-02-06 10:52:00,9.0,7.0,-100.00,WNW,285,3.0,5.0,93,-99.99,,,-99.99,,2013-02-06 15:52:00,
2013-02-06 11:01:00,10.0,9.0,-100.00,West,265,2.0,4.0,93,-99.99,,,-99.99,,2013-02-06 16:01:00,
2013-02-06 11:11:00,10.0,9.0,-100.00,West,265,2.0,4.0,93,-99.99,,,-99.99,,2013-02-06 16:11:00,
2013-02-06 11:21:00,13.0,11.0,-100.00,SSE,155,1.0,3.0,93,-99.99,,,-99.99,,2013-02-06 16:21:00,
2013-02-06 11:32:00,14.0,12.0,-100.00,ESE,115,2.0,4.0,90,-99.99,,,-99.99,,2013-02-06 16:32:00,
2013-02-06 11:42:00,14.0,12.0,-100.00,ESE,115,2.0,4.0,90,-99.99,,,-99.99,,2013-02-06 16:42:00,
2013-02-06 11:52:00,16.0,11.0,-100.00,South,175,4.0,7.0,81,-99.99,,,-99.99,,2013-02-06 16:52:00,
2013-02-06 12:02:00,16.0,11.0,-100.00,South,175,4.0,7.0,81,-99.99,,,-99.99,,2013-02-06 17:02:00,
2013-02-06 12:11:00,16.0,11.0,-100.00,South,175,4.0,7.0,81,-99.99,,,-99.99,,2013-02-06 17:11:00,
2013-02-06 12:21:00,18.0,11.0,-100.00,SE,145,4.0,6.0,76,-99.99,,,-99.99,,2013-02-06 17:21:00,
2013-02-06 12:32:00,18.0,10.0,-100.00,South,175,4.0,7.0,71,-99.99,,,-99.99,,2013-02-06 17:32:00,
2013-02-06 12:42:00,18.0,10.0,-100.00,South,175,4.0,7.0,71,-99.99,,,-99.99,,2013-02-06 17:42:00,
2013-02-06 12:52:00,18.0,9.0,-100.00,SSE,165,5.0,9.0,68,-99.99,,,-99.99,,2013-02-06 17:52:00,
2013-02-06 13:01:00,18.0,8.0,-100.00,East,95,4.0,7.0,64,-99.99,,,-99.99,,2013-02-06 18:01:00,
2013-02-06 13:11:00,18.0,8.0,-100.00,East,95,4.0,7.0,64,-99.99,,,-99.99,,2013-02-06 18:11:00,
2013-02-06 13:23:00,16.0,9.0,-100.00,SE,145,5.0,9.0,72,-99.99,,,-99.99,,2013-02-06 18:23:00,
2013-02-06 13:32:00,18.0,11.0,-100.00,SE,135,4.0,10.0,73,-99.99,,,-99.99,,2013-02-06 18:32:00,
2013-02-06 13:42:00,18.0,11.0,-100.00,SE,135,4.0,10.0,73,-99.99,,,-99.99,,2013-02-06 18:42:00,
2013-02-06 13:52:00,18.0,12.0,-100.00,ESE,105,5.0,11.0,74,-99.99,,,-99.99,,2013-02-06 18:52:00,
2013-02-06 14:01:00,18.0,13.0,-100.00,SE,140,8.0,11.0,80,-99.99,,,-99.99,,2013-02-06 19:01:00,
2013-02-06 14:11:00,18.0,13.0,-100.00,SE,140,8.0,11.0,80,-99.99,,,-99.99,,2013-02-06 19:11:00,
2013-02-06 14:21:00,21.0,15.0,-100.00,SE,140,6.0,9.0,76,-99.99,,,-99.99,,2013-02-06 19:21:00,
2013-02-06 14:32:00,24.0,14.0,-100.00,SE,135,7.0,11.0,66,-99.99,,,-99.99,,2013-02-06 19:32:00,
2013-02-06 14:42:00,24.0,14.0,-100.00,SE,135,7.0,11.0,66,-99.99,,,-99.99,,2013-02-06 19:42:00,
2013-02-06 14:50:00,24.0,14.0,-100.00,SSE,165,10.0,14.0,67,-99.99,,,-99.99,,2013-02-06 19:50:00,
2013-02-06 14:52:00,23.0,14.0,-100.00,SE,125,6.0,10.0,68,-99.99,,,-99.99,,2013-02-06 19:52:00,
2013-02-06 15:01:00,23.0,13.0,-100.00,SE,135,6.0,11.0,65,-99.99,,,-99.99,,2013-02-06 20:01:00,
2013-02-06 15:11:00,23.0,13.0,-100.00,SE,135,6.0,11.0,65,-99.99,,,-99.99,,2013-02-06 20:11:00,
2013-02-06 15:21:00,24.0,14.0,-100.00,SE,130,6.0,14.0,64,-99.99,,,-99.99,,2013-02-06 20:21:00,
2013-02-06 15:32:00,24.0,14.0,-100.00,SSE,165,10.0,14.0,67,-99.99,,,-99.99,,2013-02-06 20:32:00,
2013-02-06 15:42:00,24.0,14.0,-100.00,SSE,165,10.0,14.0,67,-99.99,,,-99.99,,2013-02-06 20:42:00,
2013-02-06 16:02:00,22.0,15.0,-100.00,SSE,160,7.0,14.0,73,-99.99,,,-99.99,,2013-02-06 21:02:00,
2013-02-06 16:11:00,22.0,15.0,-100.00,SSE,160,7.0,14.0,73,-99.99,,,-99.99,,2013-02-06 21:11:00,
2013-02-06 16:21:00,22.0,14.0,-100.00,South,185,11.0,13.0,73,-99.99,,,-99.99,,2013-02-06 21:21:00,
2013-02-06 16:32:00,22.0,14.0,-100.00,South,190,7.0,15.0,72,-99.99,,,-99.99,,2013-02-06 21:32:00,
2013-02-06 16:42:00,22.0,14.0,-100.00,South,190,7.0,15.0,72,-99.99,,,-99.99,,2013-02-06 21:42:00,
2013-02-06 16:51:00,22.0,14.0,-100.00,South,175,9.0,14.0,73,-99.99,,,-99.99,,2013-02-06 21:51:00,
2013-02-06 17:01:00,22.0,15.0,-100.00,South,175,6.0,14.0,73,-99.99,,,-99.99,,2013-02-06 22:01:00,
2013-02-06 17:11:00,22.0,15.0,-100.00,South,175,6.0,14.0,73,-99.99,,,-99.99,,2013-02-06 22:11:00,
2013-02-06 17:21:00,22.0,15.0,-100.00,SSE,165,5.0,11.0,76,-99.99,,,-99.99,,2013-02-06 22:21:00,
2013-02-06 17:31:00,21.0,16.0,-100.00,South,180,9.0,13.0,79,-99.99,,,-99.99,,2013-02-06 22:31:00,
2013-02-06 17:42:00,21.0,16.0,-100.00,South,180,9.0,13.0,79,-99.99,,,-99.99,,2013-02-06 22:42:00,
2013-02-06 17:52:00,21.0,16.0,-100.00,SSW,205,6.0,11.0,81,-99.99,,,-99.99,,2013-02-06 22:52:00,
2013-02-06 18:01:00,21.0,15.0,-100.00,South,175,6.0,11.0,79,-99.99,,,-99.99,,2013-02-06 23:01:00,
2013-02-06 18:11:00,21.0,15.0,-100.00,South,175,6.0,11.0,79,-99.99,,,-99.99,,2013-02-06 23:11:00,
2013-02-06 18:21:00,21.0,16.0,-100.00,South,185,6.0,14.0,82,-99.99,,,-99.99,,2013-02-06 23:21:00,
2013-02-06 18:32:00,20.0,16.0,-100.00,SSE,165,6.0,10.0,85,-99.99,,,-99.99,,2013-02-06 23:32:00,
2013-02-06 18:42:00,20.0,16.0,-100.00,SSE,165,6.0,10.0,85,-99.99,,,-99.99,,2013-02-06 23:42:00,
2013-02-06 18:52:00,20.0,17.0,-100.00,SSE,165,7.0,11.0,89,-99.99,,,-99.99,,2013-02-06 23:52:00,
2013-02-06 19:01:00,19.0,18.0,-100.00,South,185,4.0,10.0,93,-99.99,,,-99.99,,2013-02-07 00:01:00,
2013-02-06 19:11:00,19.0,18.0,-100.00,South,185,4.0,10.0,93,-99.99,,,-99.99,,2013-02-07 00:11:00,
2013-02-06 19:21:00,19.0,18.0,-100.00,South,170,5.0,9.0,95,-99.99,,,-99.99,,2013-02-07 00:21:00,
2013-02-06 19:32:00,19.0,19.0,-100.00,SSW,195,4.0,8.0,97,-99.99,,,-99.99,,2013-02-07 00:32:00,
2013-02-06 19:42:00,19.0,19.0,-100.00,SSW,195,4.0,8.0,97,-99.99,,,-99.99,,2013-02-07 00:42:00,
2013-02-06 19:51:00,20.0,19.0,-100.00,South,170,4.0,6.0,98,-99.99,,,-99.99,,2013-02-07 00:51:00,
2013-02-06 20:01:00,19.0,19.0,-100.00,SSE,155,4.0,6.0,99,-99.99,,,-99.99,,2013-02-07 01:01:00,
2013-02-06 20:11:00,19.0,19.0,-100.00,SSE,155,4.0,6.0,99,-99.99,,,-99.99,,2013-02-07 01:11:00,
2013-02-06 20:21:00,20.0,19.0,-100.00,SSE,155,4.0,6.0,99,-99.99,,,-99.99,,2013-02-07 01:21:00,
2013-02-06 20:32:00,19.0,-99.9,-100.00,SSE,155,4.0,7.0,-999,-99.99,,,-99.99,,2013-02-07 01:32:00,
2013-02-06 20:42:00,19.0,-99.9,-100.00,SSE,155,4.0,7.0,-999,-99.99,,,-99.99,,2013-02-07 01:42:00,
2013-02-06 20:50:00,19.0,-99.9,-100.00,SE,145,3.0,6.0,-999,-99.99,,,-99.99,,2013-02-07 01:50:00,
2013-02-06 20:52:00,20.0,-99.9,-100.00,SSE,150,5.0,8.0,-999,-99.99,,,-99.99,,2013-02-07 01:52:00,
2013-02-06 21:02:00,20.0,-99.9,-100.00,SSE,150,5.0,8.0,-999,-99.99,,,-99.99,,2013-02-07 02:02:00,
2013-02-06 21:12:00,20.0,-99.9,-100.00,SSE,150,5.0,8.0,-999,-99.99,,,-99.99,,2013-02-07 02:12:00,
2013-02-06 21:22:00,19.0,-99.9,-100.00,South,175,4.0,7.0,-999,-99.99,,,-99.99,,2013-02-07 02:22:00,
2013-02-06 21:32:00,19.0,-99.9,-100.00,SE,145,3.0,6.0,-999,-99.99,,,-99.99,,2013-02-07 02:32:00,
2013-02-06 21:42:00,19.0,-99.9,-100.00,SE,145,3.0,6.0,-999,-99.99,,,-99.99,,2013-02-07 02:42:00,
2013-02-06 22:02:00,19.0,-99.9,-100.00,ESE,105,4.0,6.0,-999,-99.99,,,-99.99,,2013-02-07 03:02:00,
2013-02-06 22:11:00,19.0,-99.9,-100.00,ESE,105,4.0,6.0,-999,-99.99,,,-99.99,,2013-02-07 03:11:00,
2013-02-06 22:22:00,19.0,-99.9,-100.00,ESE,105,3.0,6.0,-999,-99.99,,,-99.99,,2013-02-07 03:22:00,
2013-02-06 22:32:00,19.0,-99.9,-100.00,East,80,1.0,2.0,-999,-99.99,,,-99.99,,2013-02-07 03:32:00,
2013-02-06 22:42:00,19.0,-99.9,-100.00,East,80,1.0,2.0,-999,-99.99,,,-99.99,,2013-02-07 03:42:00,
2013-02-06 22:52:00,19.0,-99.9,-100.00,ESE,120,1.0,2.0,-999,-99.99,,,-99.99,,2013-02-07 03:52:00,
2013-02-06 23:01:00,19.0,-99.9,-100.00,East,90,1.0,3.0,-999,-99.99,,,-99.99,,2013-02-07 04:01:00,
2013-02-06 23:11:00,19.0,-99.9,-100.00,East,90,1.0,3.0,-999,-99.99,,,-99.99,,2013-02-07 04:11:00,
2013-02-06 23:22:00,19.0,-99.9,-100.00,East,80,1.0,2.0,-999,-99.99,,,-99.99,,2013-02-07 04:22:00,
2013-02-06 23:32:00,19.0,-99.9,-100.00,North,0,4.0,7.0,-999,-99.99,,,-99.99,,2013-02-07 04:32:00,
2013-02-06 23:42:00,19.0,-99.9,-100.00,North,0,4.0,7.0,-999,-99.99,,,-99.99,,2013-02-07 04:42:00,
2013-02-06 23:53:00,19.0,-99.9,-100.00,NW,320,7.0,10.0,-999,-99.99,,,-99.99,,2013-02-07 04:53:00,